createdAt,value
2016-12-24T00:01:03.414Z,19.49
2016-12-24T00:02:13.683Z,19.5
2016-12-24T00:03:23.644Z,19.49
2016-12-24T00:04:33.305Z,19.5
2016-12-24T00:05:42.943Z,19.59
2016-12-24T00:06:53.203Z,19.49
2016-12-24T00:08:03.193Z,19.59
2016-12-24T00:09:13.148Z,19.59
2016-12-24T00:10:23.415Z,19.68
2016-12-24T00:11:33.052Z,19.5
2016-12-24T00:12:43.018Z,19.49
2016-12-24T00:13:52.989Z,19.4
2016-12-24T00:15:03.274Z,19.2
2016-12-24T00:16:13.237Z,19.5
2016-12-24T00:17:23.196Z,19.49
2016-12-24T00:18:33.144Z,19.4
2016-12-24T00:19:43.407Z,19.5
2016-12-24T00:20:53.683Z,19.3
2016-12-24T00:22:03.635Z,19.3
2016-12-24T00:23:13.581Z,19.3
2016-12-24T00:24:23.561Z,19.3
2016-12-24T00:25:33.526Z,19.4
2016-12-24T00:26:43.802Z,19.3
2016-12-24T00:27:53.769Z,19.3
2016-12-24T00:29:03.770Z,19.3
2016-12-24T00:30:13.725Z,19.2
2016-12-24T00:31:23.366Z,19.2
2016-12-24T00:32:33.324Z,19.4
2016-12-24T00:33:43.594Z,19.2
2016-12-24T00:34:53.850Z,19.49
2016-12-24T00:36:03.503Z,19.2
2016-12-24T00:37:13.771Z,19.11
2016-12-24T00:38:23.418Z,19.49
2016-12-24T00:39:33.376Z,19.11
2016-12-24T00:40:43.328Z,19.68
2016-12-24T00:41:52.969Z,19.01
2016-12-24T00:43:02.931Z,19.4
2016-12-24T00:44:13.203Z,19.4
2016-12-24T00:45:23.472Z,19.11
2016-12-24T00:46:33.443Z,19.49
2016-12-24T00:47:43.392Z,19.11
2016-12-24T00:48:53.341Z,19.2
2016-12-24T00:50:03.321Z,19.2
2016-12-24T00:51:13.600Z,19.3
2016-12-24T00:52:23.240Z,19.2
2016-12-24T00:53:33.227Z,19.01
2016-12-24T00:54:43.193Z,19.2
2016-12-24T00:55:53.459Z,19.2
2016-12-24T00:57:03.709Z,19.2
2016-12-24T00:58:13.677Z,19.2
2016-12-24T00:59:23.324Z,19.2
2016-12-24T01:00:33.286Z,19.11
2016-12-24T01:01:43.635Z,19.11
2016-12-24T01:02:53.574Z,19.2
2016-12-24T01:04:03.536Z,19.11
2016-12-24T01:05:13.795Z,19.11
2016-12-24T01:06:23.495Z,19.11
2016-12-24T01:07:33.450Z,19.01
2016-12-24T01:08:43.719Z,19.2
2016-12-24T01:09:53.674Z,18.82
2016-12-24T01:11:03.945Z,19.2
2016-12-24T01:12:13.580Z,19.01
2016-12-24T01:13:23.533Z,19.2
2016-12-24T01:14:33.481Z,19.11
2016-12-24T01:15:43.744Z,19.11
2016-12-24T01:16:53.393Z,19.11
2016-12-24T01:18:03.363Z,19.11
2016-12-24T01:19:13.642Z,19.11
2016-12-24T01:20:23.593Z,19.01
2016-12-24T01:21:33.561Z,19.01
2016-12-24T01:22:43.206Z,19.01
2016-12-24T01:23:52.847Z,18.91
2016-12-24T01:25:02.796Z,19.11
2016-12-24T01:26:12.742Z,19.01
2016-12-24T01:27:23.004Z,19.2
2016-12-24T01:28:32.963Z,19.01
2016-12-24T01:29:42.915Z,19.01
2016-12-24T01:30:52.867Z,19.01
2016-12-24T01:32:02.815Z,19.01
2016-12-24T01:33:13.074Z,19.11
2016-12-24T01:34:23.331Z,19.11
2016-12-24T01:35:33.286Z,19.11
2016-12-24T01:36:43.538Z,19.11
2016-12-24T01:37:53.187Z,18.91
2016-12-24T01:39:03.142Z,19.01
2016-12-24T01:40:12.787Z,19.11
2016-12-24T01:41:22.735Z,18.82
2016-12-24T01:42:32.374Z,19.11
2016-12-24T01:43:42.323Z,19.11
2016-12-24T01:44:51.964Z,18.91
2016-12-24T01:46:02.217Z,18.91
2016-12-24T01:47:11.859Z,18.91
2016-12-24T01:48:22.361Z,18.91
2016-12-24T01:49:32.050Z,18.73
2016-12-24T01:50:42.006Z,18.73
2016-12-24T01:51:52.268Z,18.91
2016-12-24T01:53:01.936Z,18.91
2016-12-24T01:54:11.570Z,18.73
2016-12-24T01:55:21.622Z,18.73
2016-12-24T01:56:31.881Z,18.91
2016-12-24T01:57:41.839Z,18.91
2016-12-24T01:58:51.788Z,18.91
2016-12-24T02:00:01.749Z,18.91
2016-12-24T02:01:11.077Z,18.91
2016-12-24T02:02:21.337Z,18.82
2016-12-24T02:03:31.602Z,18.91
2016-12-24T02:04:41.864Z,18.82
2016-12-24T02:05:52.134Z,18.91
2016-12-24T02:07:02.087Z,18.91
2016-12-24T02:08:11.758Z,18.91
2016-12-24T02:09:22.011Z,18.82
2016-12-24T02:10:31.972Z,18.91
2016-12-24T02:11:41.924Z,18.82
2016-12-24T02:12:51.873Z,19.01
2016-12-24T02:14:01.516Z,18.91
2016-12-24T02:15:11.776Z,18.82
2016-12-24T02:16:21.425Z,18.82
2016-12-24T02:17:31.693Z,18.73
2016-12-24T02:18:41.322Z,18.91
2016-12-24T02:19:51.588Z,18.91
2016-12-24T02:21:01.852Z,18.82
2016-12-24T02:22:11.802Z,18.82
2016-12-24T02:23:22.074Z,18.82
2016-12-24T02:24:32.032Z,18.91
2016-12-24T02:25:41.978Z,18.91
2016-12-24T02:26:51.309Z,18.91
2016-12-24T02:28:01.263Z,18.91
2016-12-24T02:29:10.899Z,19.01
2016-12-24T02:30:21.161Z,18.91
2016-12-24T02:31:31.110Z,18.82
2016-12-24T02:32:41.363Z,18.73
2016-12-24T02:33:51.619Z,18.63
2016-12-24T02:35:01.894Z,18.91
2016-12-24T02:36:11.533Z,18.63
2016-12-24T02:37:21.478Z,18.73
2016-12-24T02:38:31.733Z,18.63
2016-12-24T02:39:41.682Z,18.82
2016-12-24T02:40:51.643Z,18.73
2016-12-24T02:42:01.606Z,19.01
2016-12-24T02:43:11.855Z,18.73
2016-12-24T02:44:21.510Z,18.73
2016-12-24T02:45:31.775Z,18.73
2016-12-24T02:46:41.743Z,18.91
2016-12-24T02:47:51.992Z,18.73
2016-12-24T02:49:02.242Z,18.73
2016-12-24T02:50:12.514Z,18.63
2016-12-24T02:51:22.767Z,18.73
2016-12-24T02:52:32.416Z,18.73
2016-12-24T02:53:42.064Z,18.91
2016-12-24T02:54:52.326Z,18.91
2016-12-24T02:56:02.588Z,18.91
2016-12-24T02:57:12.837Z,19.01
2016-12-24T02:58:23.108Z,18.44
2016-12-24T02:59:33.071Z,18.44
2016-12-24T03:00:43.318Z,18.91
2016-12-24T03:01:53.269Z,18.91
2016-12-24T03:03:03.215Z,18.73
2016-12-24T03:04:12.851Z,18.44
2016-12-24T03:05:22.806Z,18.53
2016-12-24T03:06:33.065Z,18.53
2016-12-24T03:07:42.700Z,18.53
2016-12-24T03:08:52.649Z,18.73
2016-12-24T03:10:02.899Z,18.53
2016-12-24T03:11:13.172Z,18.53
2016-12-24T03:12:23.472Z,18.53
2016-12-24T03:13:33.141Z,18.44
2016-12-24T03:14:42.781Z,18.34
2016-12-24T03:15:52.743Z,18.53
2016-12-24T03:17:02.371Z,18.34
2016-12-24T03:18:12.636Z,18.44
2016-12-24T03:19:22.589Z,18.34
2016-12-24T03:20:32.857Z,18.53
2016-12-24T03:21:42.815Z,18.44
2016-12-24T03:22:52.761Z,18.53
2016-12-24T03:24:03.021Z,18.53
2016-12-24T03:25:12.672Z,18.44
2016-12-24T03:26:22.937Z,18.44
2016-12-24T03:27:32.895Z,18.53
2016-12-24T03:28:42.544Z,18.34
2016-12-24T03:29:52.543Z,18.34
2016-12-24T03:31:02.512Z,18.44
2016-12-24T03:32:13.017Z,18.44
2016-12-24T03:33:23.267Z,18.34
2016-12-24T03:34:33.219Z,18.44
2016-12-24T03:35:43.164Z,18.34
2016-12-24T03:36:53.423Z,18.34
2016-12-24T03:38:03.392Z,18.34
2016-12-24T03:39:13.644Z,18.34
2016-12-24T03:40:24.000Z,18.34
2016-12-24T03:41:33.322Z,18.44
2016-12-24T03:42:42.972Z,18.34
2016-12-24T03:43:52.921Z,18.34
2016-12-24T03:45:02.882Z,18.34
2016-12-24T03:46:12.557Z,18.44
2016-12-24T03:47:22.509Z,18.34
2016-12-24T03:48:32.755Z,18.63
2016-12-24T03:49:42.403Z,18.53
2016-12-24T03:50:52.035Z,18.34
2016-12-24T03:52:01.686Z,18.34
2016-12-24T03:53:11.946Z,18.53
2016-12-24T03:54:22.192Z,18.63
2016-12-24T03:55:31.835Z,18.63
2016-12-24T03:56:41.821Z,18.63
2016-12-24T03:57:52.083Z,18.53
2016-12-24T03:59:02.035Z,18.63
2016-12-24T04:00:11.680Z,18.34
2016-12-24T04:01:21.734Z,18.63
2016-12-24T04:02:31.677Z,18.34
2016-12-24T04:03:41.622Z,18.63
2016-12-24T04:04:51.885Z,18.34
2016-12-24T04:06:02.134Z,18.44
2016-12-24T04:07:12.400Z,18.53
2016-12-24T04:08:22.349Z,18.24
2016-12-24T04:09:32.598Z,18.53
2016-12-24T04:10:42.860Z,18.53
2016-12-24T04:11:52.816Z,18.44
2016-12-24T04:13:02.774Z,18.34
2016-12-24T04:14:13.050Z,18.34
2016-12-24T04:15:23.309Z,18.44
2016-12-24T04:16:33.277Z,18.53
2016-12-24T04:17:43.530Z,18.63
2016-12-24T04:18:53.504Z,18.53
2016-12-24T04:20:03.767Z,18.63
2016-12-24T04:21:13.917Z,18.53
2016-12-24T04:22:23.866Z,18.34
2016-12-24T04:23:33.508Z,18.63
2016-12-24T04:24:43.761Z,18.63
2016-12-24T04:25:53.415Z,18.63
2016-12-24T04:27:03.379Z,18.53
2016-12-24T04:28:13.638Z,18.91
2016-12-24T04:29:23.274Z,18.44
2016-12-24T04:30:33.521Z,18.53
2016-12-24T04:31:43.160Z,18.63
2016-12-24T04:32:53.412Z,18.34
2016-12-24T04:34:03.694Z,18.91
2016-12-24T04:35:13.949Z,18.63
2016-12-24T04:36:23.277Z,18.73
2016-12-24T04:37:33.527Z,18.73
2016-12-24T04:38:43.498Z,18.53
2016-12-24T04:39:53.764Z,18.53
2016-12-24T04:41:03.716Z,18.53
2016-12-24T04:42:13.666Z,18.53
2016-12-24T04:43:23.607Z,18.53
2016-12-24T04:44:33.249Z,18.91
2016-12-24T04:45:43.525Z,18.44
2016-12-24T04:46:53.166Z,18.44
2016-12-24T04:48:03.421Z,18.82
2016-12-24T04:49:13.051Z,18.91
2016-12-24T04:50:23.012Z,18.53
2016-12-24T04:51:32.655Z,18.63
2016-12-24T04:52:41.985Z,18.73
2016-12-24T04:53:52.244Z,18.82
2016-12-24T04:55:02.392Z,18.73
2016-12-24T04:56:12.337Z,18.73
2016-12-24T04:57:22.279Z,18.73
2016-12-24T04:58:31.921Z,18.63
2016-12-24T04:59:41.559Z,18.73
2016-12-24T05:00:51.199Z,18.73
2016-12-24T05:02:01.512Z,18.73
2016-12-24T05:03:11.470Z,18.82
2016-12-24T05:04:21.829Z,18.73
2016-12-24T05:05:31.772Z,18.73
2016-12-24T05:06:42.050Z,18.91
2016-12-24T05:07:52.315Z,18.63
2016-12-24T05:09:02.271Z,18.82
2016-12-24T05:10:12.530Z,18.91
2016-12-24T05:11:22.479Z,18.91
2016-12-24T05:12:32.741Z,18.91
2016-12-24T05:13:42.696Z,18.91
2016-12-24T05:14:52.641Z,18.91
2016-12-24T05:16:02.895Z,18.82
2016-12-24T05:17:12.843Z,18.82
2016-12-24T05:18:23.102Z,18.91
2016-12-24T05:19:33.371Z,18.91
2016-12-24T05:20:43.010Z,18.91
2016-12-24T05:21:53.256Z,18.82
2016-12-24T05:23:03.520Z,18.63
2016-12-24T05:24:13.218Z,18.82
2016-12-24T05:25:23.180Z,18.82
2016-12-24T05:26:33.445Z,18.91
2016-12-24T05:27:43.715Z,18.91
2016-12-24T05:28:53.663Z,18.91
2016-12-24T05:30:03.913Z,18.82
2016-12-24T05:31:14.181Z,19.2
2016-12-24T05:32:24.594Z,19.01
2016-12-24T05:33:34.863Z,19.11
2016-12-24T05:34:45.125Z,18.63
2016-12-24T05:35:55.083Z,19.01
2016-12-24T05:37:05.349Z,19.2
2016-12-24T05:38:15.300Z,19.11
2016-12-24T05:39:25.237Z,19.11
2016-12-24T05:40:35.192Z,19.11
2016-12-24T05:41:45.452Z,19.11
2016-12-24T05:42:55.711Z,19.2
2016-12-24T05:44:05.717Z,19.01
2016-12-24T05:45:15.980Z,19.11
2016-12-24T05:46:25.631Z,19.2
2016-12-24T05:47:36.112Z,19.11
2016-12-24T05:48:45.753Z,19.01
2016-12-24T05:49:55.747Z,19.4
2016-12-24T05:51:05.712Z,19.4
2016-12-24T05:52:15.363Z,19.11
2016-12-24T05:53:25.624Z,19.2
2016-12-24T05:54:35.875Z,19.3
2016-12-24T05:55:45.830Z,19.2
2016-12-24T05:56:55.776Z,19.4
2016-12-24T05:58:05.734Z,19.11
2016-12-24T05:59:15.679Z,19.11
2016-12-24T06:00:25.624Z,19.11
2016-12-24T06:01:35.877Z,19.11
2016-12-24T06:02:45.531Z,19.2
2016-12-24T06:03:54.854Z,19.4
2016-12-24T06:05:05.107Z,19.3
2016-12-24T06:06:15.062Z,19.4
2016-12-24T06:07:24.726Z,19.3
2016-12-24T06:08:34.982Z,19.2
2016-12-24T06:09:45.244Z,19.68
2016-12-24T06:10:55.506Z,19.49
2016-12-24T06:12:05.772Z,19.59
2016-12-24T06:13:15.418Z,19.49
2016-12-24T06:14:25.369Z,19.4
2016-12-24T06:15:35.625Z,19.59
2016-12-24T06:16:45.267Z,19.78
2016-12-24T06:17:55.235Z,19.78
2016-12-24T06:19:05.500Z,19.68
2016-12-24T06:20:15.765Z,19.78
2016-12-24T06:21:26.042Z,19.68
2016-12-24T06:22:35.990Z,19.68
2016-12-24T06:23:46.249Z,19.78
2016-12-24T06:24:56.211Z,19.59
2016-12-24T06:26:06.457Z,19.59
2016-12-24T06:27:16.729Z,19.59
2016-12-24T06:28:26.672Z,19.88
2016-12-24T06:29:36.927Z,19.59
2016-12-24T06:30:47.187Z,19.59
2016-12-24T06:31:56.832Z,19.78
2016-12-24T06:33:07.094Z,19.88
2016-12-24T06:34:16.749Z,19.68
2016-12-24T06:35:26.089Z,19.59
2016-12-24T06:36:36.338Z,19.4
2016-12-24T06:37:46.604Z,19.68
2016-12-24T06:38:56.256Z,19.59
2016-12-24T06:40:06.220Z,19.88
2016-12-24T06:41:16.487Z,19.59
2016-12-24T06:42:26.732Z,19.78
2016-12-24T06:43:36.377Z,19.68
2016-12-24T06:44:46.624Z,19.59
2016-12-24T06:45:56.582Z,19.78
2016-12-24T06:47:06.531Z,19.78
2016-12-24T06:48:16.800Z,19.59
2016-12-24T06:49:27.056Z,19.49
2016-12-24T06:50:37.005Z,19.59
2016-12-24T06:51:46.948Z,19.59
2016-12-24T06:52:57.231Z,19.88
2016-12-24T06:54:07.501Z,20.17
2016-12-24T06:55:17.440Z,20.07
2016-12-24T06:56:27.805Z,20.07
2016-12-24T06:57:38.061Z,20.26
2016-12-24T06:58:48.000Z,20.36
2016-12-24T06:59:57.945Z,20.17
2016-12-24T07:01:08.202Z,20.07
2016-12-24T07:02:18.461Z,20.36
2016-12-24T07:03:28.765Z,20.36
2016-12-24T07:04:38.707Z,20.45
2016-12-24T07:05:48.966Z,20.26
2016-12-24T07:06:59.242Z,20.26
2016-12-24T07:08:09.506Z,20.55
2016-12-24T07:09:19.767Z,20.36
2016-12-24T07:10:30.029Z,20.55
2016-12-24T07:11:39.980Z,20.36
2016-12-24T07:12:50.246Z,20.47
2016-12-24T07:14:00.196Z,20.26
2016-12-24T07:15:10.490Z,20.36
2016-12-24T07:16:20.467Z,20.36
2016-12-24T07:17:30.425Z,20.36
2016-12-24T07:18:40.691Z,20.27
2016-12-24T07:19:50.666Z,20.26
2016-12-24T07:21:00.927Z,20.37
2016-12-24T07:22:11.229Z,20.26
2016-12-24T07:23:21.497Z,20.17
2016-12-24T07:24:31.145Z,20.26
2016-12-24T07:25:41.398Z,20.17
2016-12-24T07:26:51.347Z,20.36
2016-12-24T07:28:01.298Z,20.27
2016-12-24T07:29:11.561Z,20.45
2016-12-24T07:30:21.206Z,20.65
2016-12-24T07:31:31.148Z,20.64
2016-12-24T07:32:40.789Z,20.27
2016-12-24T07:33:50.435Z,20.64
2016-12-24T07:35:00.694Z,20.55
2016-12-24T07:36:10.963Z,20.56
2016-12-24T07:37:21.221Z,20.56
2016-12-24T07:38:31.538Z,20.64
2016-12-24T07:39:40.866Z,20.65
2016-12-24T07:40:50.208Z,20.75
2016-12-24T07:41:59.852Z,20.55
2016-12-24T07:43:09.820Z,20.74
2016-12-24T07:44:19.464Z,20.45
2016-12-24T07:45:29.740Z,20.74
2016-12-24T07:46:39.402Z,20.75
2016-12-24T07:47:49.064Z,20.94
2016-12-24T07:48:59.427Z,20.85
2016-12-24T07:50:09.705Z,20.75
2016-12-24T07:51:19.974Z,20.85
2016-12-24T07:52:29.929Z,20.75
2016-12-24T07:53:39.878Z,20.74
2016-12-24T07:54:50.153Z,20.94
2016-12-24T07:56:00.127Z,20.85
2016-12-24T07:57:10.422Z,20.94
2016-12-24T07:58:20.377Z,20.94
2016-12-24T07:59:30.632Z,21.04
2016-12-24T08:00:40.908Z,21.04
2016-12-24T08:01:50.873Z,21.04
2016-12-24T08:03:00.822Z,21.14
2016-12-24T08:04:10.780Z,20.75
2016-12-24T08:05:21.037Z,21.14
2016-12-24T08:06:30.998Z,20.65
2016-12-24T08:07:40.956Z,20.94
2016-12-24T08:08:50.904Z,20.85
2016-12-24T08:10:00.863Z,21.04
2016-12-24T08:11:11.128Z,20.85
2016-12-24T08:12:21.374Z,21.33
2016-12-24T08:13:30.732Z,20.85
2016-12-24T08:14:40.692Z,21.23
2016-12-24T08:15:50.967Z,20.85
2016-12-24T08:17:01.241Z,21.23
2016-12-24T08:18:11.513Z,20.85
2016-12-24T08:19:21.175Z,20.85
2016-12-24T08:20:31.130Z,20.85
2016-12-24T08:21:40.478Z,20.94
2016-12-24T08:22:50.127Z,20.75
2016-12-24T08:24:00.395Z,20.85
2016-12-24T08:25:09.735Z,20.85
2016-12-24T08:26:19.406Z,20.75
2016-12-24T08:27:29.688Z,20.85
2016-12-24T08:28:39.954Z,21.23
2016-12-24T08:29:49.931Z,21.14
2016-12-24T08:30:59.874Z,21.14
2016-12-24T08:32:10.155Z,21.33
2016-12-24T08:33:20.120Z,21.14
2016-12-24T08:34:30.076Z,21.14
2016-12-24T08:35:40.344Z,21.04
2016-12-24T08:36:50.668Z,21.04
2016-12-24T08:38:00.616Z,21.14
2016-12-24T08:39:10.568Z,21.33
2016-12-24T08:40:20.853Z,21.33
2016-12-24T08:41:31.131Z,21.33
2016-12-24T08:42:41.077Z,21.42
2016-12-24T08:43:51.035Z,21.23
2016-12-24T08:45:01.604Z,21.14
2016-12-24T08:46:11.554Z,21.61
2016-12-24T08:47:21.826Z,21.61
2016-12-24T08:48:31.781Z,21.52
2016-12-24T08:49:41.736Z,21.23
2016-12-24T08:50:51.707Z,21.14
2016-12-24T08:52:01.982Z,21.33
2016-12-24T08:53:12.245Z,21.52
2016-12-24T08:54:21.904Z,21.52
2016-12-24T08:55:32.175Z,21.42
2016-12-24T08:56:42.126Z,21.42
2016-12-24T08:57:52.092Z,21.42
2016-12-24T08:59:02.373Z,21.61
2016-12-24T09:00:12.332Z,21.33
2016-12-24T09:01:21.973Z,21.52
2016-12-24T09:02:32.245Z,21.42
2016-12-24T09:03:42.223Z,21.52
2016-12-24T09:04:51.883Z,21.71
2016-12-24T09:06:02.159Z,21.61
2016-12-24T09:07:11.803Z,21.33
2016-12-24T09:08:22.063Z,21.61
2016-12-24T09:09:32.328Z,21.71
2016-12-24T09:10:42.603Z,21.52
2016-12-24T09:11:52.552Z,21.71
2016-12-24T09:13:02.817Z,21.71
2016-12-24T09:14:13.076Z,21.71
2016-12-24T09:15:23.025Z,21.52
2016-12-24T09:16:33.291Z,21.71
2016-12-24T09:17:43.545Z,21.71
2016-12-24T09:18:52.888Z,21.91
2016-12-24T09:20:03.196Z,21.61
2016-12-24T09:21:13.147Z,21.91
2016-12-24T09:22:23.595Z,21.71
2016-12-24T09:23:32.975Z,21.71
2016-12-24T09:24:42.936Z,21.81
2016-12-24T09:25:53.221Z,21.61
2016-12-24T09:27:02.866Z,21.61
2016-12-24T09:28:13.124Z,21.61
2016-12-24T09:29:22.786Z,21.81
2016-12-24T09:30:32.761Z,21.71
2016-12-24T09:31:42.709Z,21.71
2016-12-24T09:32:52.977Z,21.61
2016-12-24T09:34:03.246Z,22
2016-12-24T09:35:13.212Z,22
2016-12-24T09:36:23.480Z,21.71
2016-12-24T09:37:33.750Z,21.91
2016-12-24T09:38:44.008Z,21.91
2016-12-24T09:39:53.975Z,21.91
2016-12-24T09:41:04.251Z,21.81
2016-12-24T09:42:14.517Z,21.91
2016-12-24T09:43:24.792Z,21.91
2016-12-24T09:44:34.750Z,21.81
2016-12-24T09:45:44.421Z,21.81
2016-12-24T09:46:54.702Z,21.81
2016-12-24T09:48:04.678Z,22.09
2016-12-24T09:49:14.959Z,22.19
2016-12-24T09:50:25.218Z,22.29
2016-12-24T09:51:35.483Z,22
2016-12-24T09:52:45.118Z,21.91
2016-12-24T09:53:55.077Z,22.09
2016-12-24T09:55:05.371Z,22.19
2016-12-24T09:56:15.333Z,22
2016-12-24T09:57:25.604Z,22.09
2016-12-24T09:58:35.857Z,22.09
2016-12-24T09:59:45.812Z,22.38
2016-12-24T10:00:55.770Z,22.19
2016-12-24T10:02:05.736Z,21.91
2016-12-24T10:03:16.014Z,22.19
2016-12-24T10:04:25.979Z,22.19
2016-12-24T10:05:35.924Z,22.19
2016-12-24T10:06:46.187Z,21.91
2016-12-24T10:07:56.142Z,22.19
2016-12-24T10:09:06.463Z,21.91
2016-12-24T10:10:16.109Z,21.81
2016-12-24T10:11:26.382Z,22.09
2016-12-24T10:12:36.043Z,22.09
2016-12-24T10:13:45.755Z,22.19
2016-12-24T10:14:55.736Z,22.19
2016-12-24T10:16:06.008Z,21.91
2016-12-24T10:17:15.985Z,22.19
2016-12-24T10:18:26.288Z,22.09
2016-12-24T10:19:36.244Z,21.81
2016-12-24T10:20:46.504Z,22
2016-12-24T10:21:56.481Z,22.09
2016-12-24T10:23:06.485Z,22
2016-12-24T10:24:16.744Z,22.09
2016-12-24T10:25:26.699Z,22.19
2016-12-24T10:26:36.657Z,22.19
2016-12-24T10:27:46.629Z,22.09
2016-12-24T10:28:56.597Z,22.19
2016-12-24T10:30:06.888Z,22.19
2016-12-24T10:31:17.176Z,22.09
2016-12-24T10:32:27.435Z,21.91
2016-12-24T10:33:37.397Z,21.91
2016-12-24T10:34:47.377Z,21.91
2016-12-24T10:35:57.383Z,22.19
2016-12-24T10:37:07.656Z,22
2016-12-24T10:38:17.915Z,22.38
2016-12-24T10:39:27.572Z,22.48
2016-12-24T10:40:37.860Z,22.19
2016-12-24T10:41:47.512Z,22.09
2016-12-24T10:42:57.476Z,22.19
2016-12-24T10:44:07.127Z,22.67
2016-12-24T10:45:17.403Z,22.48
2016-12-24T10:46:27.348Z,22.48
2016-12-24T10:47:37.623Z,22.48
2016-12-24T10:48:47.612Z,22.58
2016-12-24T10:49:57.883Z,22.48
2016-12-24T10:51:07.840Z,22.19
2016-12-24T10:52:17.796Z,22.19
2016-12-24T10:53:27.767Z,21.91
2016-12-24T10:54:38.060Z,22.58
2016-12-24T10:55:48.352Z,22.19
2016-12-24T10:56:58.622Z,22
2016-12-24T10:58:07.959Z,22.19
2016-12-24T10:59:18.228Z,22
2016-12-24T11:00:28.288Z,22
2016-12-24T11:01:37.319Z,22.19
2016-12-24T11:02:47.275Z,22.09
2016-12-24T11:03:57.242Z,22
2016-12-24T11:05:07.204Z,22.09
2016-12-24T11:06:17.155Z,22.09
2016-12-24T11:07:26.794Z,22.09
2016-12-24T11:08:37.079Z,22.38
2016-12-24T11:09:46.417Z,22.48
2016-12-24T11:10:56.368Z,22.48
2016-12-24T11:12:06.016Z,22.29
2016-12-24T11:13:15.988Z,22.58
2016-12-24T11:14:25.951Z,22.48
2016-12-24T11:15:35.927Z,22.67
2016-12-24T11:16:45.287Z,22.48
2016-12-24T11:17:54.928Z,22.38
2016-12-24T11:19:04.595Z,22.58
2016-12-24T11:20:14.560Z,22.67
2016-12-24T11:21:24.523Z,22.67
2016-12-24T11:22:34.794Z,22.38
2016-12-24T11:23:45.069Z,22.38
2016-12-24T11:24:54.736Z,22.67
2016-12-24T11:26:04.375Z,22.77
2016-12-24T11:27:14.365Z,22.77
2016-12-24T11:28:24.620Z,22.77
2016-12-24T11:29:34.285Z,22.77
2016-12-24T11:30:44.243Z,22.58
2016-12-24T11:31:54.516Z,22.67
2016-12-24T11:33:04.775Z,22.67
2016-12-24T11:34:14.432Z,22.58
2016-12-24T11:35:24.698Z,22.77
2016-12-24T11:36:34.649Z,22.67
2016-12-24T11:37:44.937Z,22.67
2016-12-24T11:38:54.905Z,22.77
2016-12-24T11:40:05.170Z,22.86
2016-12-24T11:41:15.142Z,22.86
2016-12-24T11:42:25.084Z,22.67
2016-12-24T11:43:35.366Z,22.67
2016-12-24T11:44:45.072Z,22.86
2016-12-24T11:45:55.035Z,22.96
2016-12-24T11:47:05.010Z,22.86
2016-12-24T11:48:15.285Z,22.67
2016-12-24T11:49:25.577Z,22.77
2016-12-24T11:50:34.916Z,22.86
2016-12-24T11:51:44.865Z,22.86
2016-12-24T11:52:55.153Z,22.77
2016-12-24T11:54:05.412Z,22.86
2016-12-24T11:55:15.710Z,22.77
2016-12-24T11:56:25.681Z,22.86
2016-12-24T11:57:35.009Z,22.88
2016-12-24T11:58:44.986Z,22.96
2016-12-24T11:59:55.281Z,22.96
2016-12-24T12:01:05.258Z,22.96
2016-12-24T12:02:15.528Z,22.86
2016-12-24T12:03:25.786Z,22.86
2016-12-24T12:04:35.751Z,22.96
2016-12-24T12:05:45.988Z,23.06
2016-12-24T12:06:55.963Z,23.44
2016-12-24T12:08:05.940Z,23.06
2016-12-24T12:09:15.281Z,23.06
2016-12-24T12:10:24.944Z,22.96
2016-12-24T12:11:35.207Z,22.96
2016-12-24T12:12:45.178Z,22.96
2016-12-24T12:13:55.140Z,23.06
2016-12-24T12:15:05.402Z,23.06
2016-12-24T12:16:15.357Z,23.25
2016-12-24T12:17:25.626Z,22.96
2016-12-24T12:18:35.626Z,23.06
2016-12-24T12:19:45.901Z,23.35
2016-12-24T12:20:55.601Z,22.96
2016-12-24T12:22:05.616Z,23.25
2016-12-24T12:23:15.869Z,22.96
2016-12-24T12:24:25.873Z,22.96
2016-12-24T12:25:36.150Z,23.25
2016-12-24T12:26:46.121Z,23.44
2016-12-24T12:27:56.400Z,23.44
2016-12-24T12:29:06.515Z,23.15
2016-12-24T12:30:16.467Z,23.35
2016-12-24T12:31:26.743Z,22.96
2016-12-24T12:32:37.056Z,23.35
2016-12-24T12:33:47.018Z,23.44
2016-12-24T12:34:56.980Z,23.25
2016-12-24T12:36:07.258Z,23.44
2016-12-24T12:37:16.916Z,23.44
2016-12-24T12:38:27.226Z,23.54
2016-12-24T12:39:37.492Z,22.96
2016-12-24T12:40:47.455Z,23.15
2016-12-24T12:41:57.117Z,23.06
2016-12-24T12:43:07.079Z,23.06
2016-12-24T12:44:17.357Z,23.06
2016-12-24T12:45:26.999Z,23.15
2016-12-24T12:46:36.647Z,23.06
2016-12-24T12:47:46.295Z,23.06
2016-12-24T12:48:55.953Z,23.06
2016-12-24T12:50:06.212Z,22.96
2016-12-24T12:51:16.496Z,23.06
2016-12-24T12:52:26.771Z,23.06
2016-12-24T12:53:36.728Z,23.06
2016-12-24T12:54:46.903Z,23.06
2016-12-24T12:55:56.875Z,23.06
2016-12-24T12:57:06.846Z,23.06
2016-12-24T12:58:16.808Z,23.06
2016-12-24T12:59:27.082Z,23.06
2016-12-24T13:00:37.521Z,22.96
2016-12-24T13:01:47.828Z,23.06
2016-12-24T13:02:57.851Z,23.06
2016-12-24T13:04:07.812Z,22.96
2016-12-24T13:05:17.811Z,22.86
2016-12-24T13:06:27.764Z,23.06
2016-12-24T13:07:38.027Z,23.06
2016-12-24T13:08:48.305Z,22.96
2016-12-24T13:09:58.579Z,23.06
2016-12-24T13:11:08.420Z,22.96
2016-12-24T13:12:18.074Z,22.96
2016-12-24T13:13:27.726Z,22.86
2016-12-24T13:14:37.368Z,22.96
2016-12-24T13:15:47.386Z,22.86
2016-12-24T13:16:57.045Z,22.96
2016-12-24T13:18:07.013Z,22.86
2016-12-24T13:19:17.300Z,22.77
2016-12-24T13:20:27.262Z,23.06
2016-12-24T13:21:37.546Z,22.86
2016-12-24T13:22:47.810Z,22.96
2016-12-24T13:23:57.812Z,22.86
2016-12-24T13:25:07.560Z,23.06
2016-12-24T13:26:17.839Z,22.86
2016-12-24T13:27:28.122Z,22.86
2016-12-24T13:28:38.386Z,22.78
2016-12-24T13:29:48.636Z,22.96
2016-12-24T13:30:58.281Z,22.96
2016-12-24T13:32:08.571Z,22.96
2016-12-24T13:33:18.233Z,22.96
2016-12-24T13:34:28.510Z,22.86
2016-12-24T13:35:38.463Z,22.86
2016-12-24T13:36:48.741Z,23.15
2016-12-24T13:37:58.706Z,23.06
2016-12-24T13:39:08.968Z,23.06
2016-12-24T13:40:18.924Z,23.06
2016-12-24T13:41:29.191Z,23.06
2016-12-24T13:42:39.504Z,22.96
2016-12-24T13:43:49.173Z,23.06
2016-12-24T13:44:59.446Z,22.96
2016-12-24T13:46:09.436Z,22.86
2016-12-24T13:47:19.702Z,23.06
2016-12-24T13:48:29.347Z,23.06
2016-12-24T13:49:39.862Z,23.06
2016-12-24T13:50:50.124Z,23.06
2016-12-24T13:52:00.412Z,23.15
2016-12-24T13:53:10.674Z,23.06
2016-12-24T13:54:21.001Z,23.15
2016-12-24T13:55:31.270Z,23.06
2016-12-24T13:56:41.561Z,23.15
2016-12-24T13:57:51.869Z,22.96
2016-12-24T13:59:02.157Z,23.06
2016-12-24T14:00:12.166Z,23.06
2016-12-24T14:01:22.412Z,22.86
2016-12-24T14:02:32.381Z,22.96
2016-12-24T14:03:42.362Z,23.06
2016-12-24T14:04:52.323Z,23.06
2016-12-24T14:06:02.292Z,23.06
2016-12-24T14:07:11.939Z,23.06
2016-12-24T14:08:21.597Z,23.06
2016-12-24T14:09:31.553Z,22.86
2016-12-24T14:10:41.511Z,22.96
2016-12-24T14:11:51.527Z,22.86
2016-12-24T14:13:01.232Z,22.86
2016-12-24T14:14:11.501Z,22.86
2016-12-24T14:15:21.453Z,22.67
2016-12-24T14:16:31.728Z,22.86
2016-12-24T14:17:41.699Z,22.77
2016-12-24T14:18:51.354Z,22.86
2016-12-24T14:20:01.322Z,22.86
2016-12-24T14:21:11.286Z,22.96
2016-12-24T14:22:20.919Z,22.58
2016-12-24T14:23:30.864Z,22.77
2016-12-24T14:24:40.189Z,22.77
2016-12-24T14:25:49.828Z,22.67
2016-12-24T14:26:59.489Z,22.77
2016-12-24T14:28:09.756Z,22.86
2016-12-24T14:29:19.763Z,22.77
2016-12-24T14:30:29.717Z,22.67
2016-12-24T14:31:39.678Z,22.67
2016-12-24T14:32:49.988Z,22.86
2016-12-24T14:34:00.261Z,22.67
2016-12-24T14:35:10.222Z,22.77
2016-12-24T14:36:19.866Z,22.77
2016-12-24T14:37:29.831Z,22.77
2016-12-24T14:38:40.107Z,22.67
2016-12-24T14:39:50.388Z,22.58
2016-12-24T14:41:00.401Z,22.77
2016-12-24T14:42:10.369Z,22.67
2016-12-24T14:43:20.635Z,22.67
2016-12-24T14:44:30.283Z,22.77
2016-12-24T14:45:40.564Z,22.48
2016-12-24T14:46:50.817Z,22.48
2016-12-24T14:48:00.795Z,22.48
2016-12-24T14:49:11.051Z,22.48
2016-12-24T14:50:21.312Z,22.38
2016-12-24T14:51:31.586Z,22.38
2016-12-24T14:52:41.851Z,22.38
2016-12-24T14:53:52.133Z,22.48
2016-12-24T14:55:02.123Z,22.48
2016-12-24T14:56:12.078Z,22.48
2016-12-24T14:57:22.046Z,22.48
2016-12-24T14:58:32.325Z,22.58
2016-12-24T14:59:41.963Z,22.48
2016-12-24T15:00:51.908Z,22.48
2016-12-24T15:02:01.852Z,22.48
2016-12-24T15:03:11.819Z,22.48
2016-12-24T15:04:21.780Z,22.48
2016-12-24T15:05:31.745Z,22.48